sensor_id;sensor_type;location;lat;lon;timestamp;temperature;humidity
73576;DHT22;61859;49.204;8.140;2023-06-26T00:02:18;21.10;57.20
73576;DHT22;61859;49.204;8.140;2023-06-26T00:04:44;21.10;57.20
73576;DHT22;61859;49.204;8.140;2023-06-26T00:07:10;21.00;57.50
73576;DHT22;61859;49.204;8.140;2023-06-26T00:09:35;21.00;57.60
73576;DHT22;61859;49.204;8.140;2023-06-26T00:12:01;20.80;58.70
73576;DHT22;61859;49.204;8.140;2023-06-26T00:14:27;20.90;58.10
73576;DHT22;61859;49.204;8.140;2023-06-26T00:16:52;20.80;58.30
73576;DHT22;61859;49.204;8.140;2023-06-26T00:19:18;20.90;58.50
73576;DHT22;61859;49.204;8.140;2023-06-26T00:21:44;20.80;58.50
73576;DHT22;61859;49.204;8.140;2023-06-26T00:24:17;20.80;58.60
73576;DHT22;61859;49.204;8.140;2023-06-26T00:26:43;20.70;58.50
73576;DHT22;61859;49.204;8.140;2023-06-26T00:29:08;20.70;58.80
73576;DHT22;61859;49.204;8.140;2023-06-26T00:31:34;20.70;58.90
73576;DHT22;61859;49.204;8.140;2023-06-26T00:34:01;20.60;59.10
73576;DHT22;61859;49.204;8.140;2023-06-26T00:36:27;20.60;59.10
73576;DHT22;61859;49.204;8.140;2023-06-26T00:38:52;20.60;59.40
73576;DHT22;61859;49.204;8.140;2023-06-26T00:41:18;20.60;59.30
73576;DHT22;61859;49.204;8.140;2023-06-26T00:43:44;20.60;59.60
73576;DHT22;61859;49.204;8.140;2023-06-26T00:46:12;20.60;59.90
73576;DHT22;61859;49.204;8.140;2023-06-26T00:48:39;20.50;59.60
73576;DHT22;61859;49.204;8.140;2023-06-26T00:51:06;20.40;59.70
73576;DHT22;61859;49.204;8.140;2023-06-26T00:53:32;20.40;60.10
73576;DHT22;61859;49.204;8.140;2023-06-26T00:55:59;20.50;59.90
73576;DHT22;61859;49.204;8.140;2023-06-26T00:58:25;20.30;59.90
73576;DHT22;61859;49.204;8.140;2023-06-26T01:00:51;20.40;60.00
73576;DHT22;61859;49.204;8.140;2023-06-26T01:03:18;20.30;59.80
73576;DHT22;61859;49.204;8.140;2023-06-26T01:05:44;20.30;60.40
73576;DHT22;61859;49.204;8.140;2023-06-26T01:08:12;20.30;61.30
73576;DHT22;61859;49.204;8.140;2023-06-26T01:10:37;20.20;61.80
73576;DHT22;61859;49.204;8.140;2023-06-26T01:13:03;20.10;62.40
73576;DHT22;61859;49.204;8.140;2023-06-26T01:15:29;20.00;62.60
73576;DHT22;61859;49.204;8.140;2023-06-26T01:17:55;20.00;62.80
73576;DHT22;61859;49.204;8.140;2023-06-26T01:20:25;20.00;63.00
73576;DHT22;61859;49.204;8.140;2023-06-26T01:23:02;20.00;63.30
73576;DHT22;61859;49.204;8.140;2023-06-26T01:28:05;19.80;64.00
73576;DHT22;61859;49.204;8.140;2023-06-26T01:30:32;19.70;64.20
73576;DHT22;61859;49.204;8.140;2023-06-26T01:33:00;19.80;64.60
73576;DHT22;61859;49.204;8.140;2023-06-26T01:35:26;19.70;64.30
73576;DHT22;61859;49.204;8.140;2023-06-26T01:37:52;19.60;64.50
73576;DHT22;61859;49.204;8.140;2023-06-26T01:40:18;19.60;64.60
73576;DHT22;61859;49.204;8.140;2023-06-26T01:42:44;19.50;65.10
73576;DHT22;61859;49.204;8.140;2023-06-26T01:45:18;19.50;65.20
73576;DHT22;61859;49.204;8.140;2023-06-26T01:47:50;19.50;65.20
73576;DHT22;61859;49.204;8.140;2023-06-26T01:50:22;19.50;65.80
73576;DHT22;61859;49.204;8.140;2023-06-26T01:55:52;19.40;65.80
73576;DHT22;61859;49.204;8.140;2023-06-26T01:58:21;19.40;65.90
73576;DHT22;61859;49.204;8.140;2023-06-26T02:00:48;19.40;66.10
73576;DHT22;61859;49.204;8.140;2023-06-26T02:03:13;19.30;66.10
73576;DHT22;61859;49.204;8.140;2023-06-26T02:05:39;19.30;66.20
73576;DHT22;61859;49.204;8.140;2023-06-26T02:08:05;19.30;65.80
73576;DHT22;61859;49.204;8.140;2023-06-26T02:10:31;19.20;66.10
73576;DHT22;61859;49.204;8.140;2023-06-26T02:12:57;19.30;66.10
73576;DHT22;61859;49.204;8.140;2023-06-26T02:15:22;19.30;65.60
73576;DHT22;61859;49.204;8.140;2023-06-26T02:17:48;19.20;66.50
73576;DHT22;61859;49.204;8.140;2023-06-26T02:20:16;19.20;66.40
73576;DHT22;61859;49.204;8.140;2023-06-26T02:22:42;19.30;65.90
73576;DHT22;61859;49.204;8.140;2023-06-26T02:25:09;19.20;66.20
73576;DHT22;61859;49.204;8.140;2023-06-26T02:27:34;19.20;66.50
73576;DHT22;61859;49.204;8.140;2023-06-26T02:30:00;19.10;66.30
73576;DHT22;61859;49.204;8.140;2023-06-26T02:32:25;19.10;66.20
73576;DHT22;61859;49.204;8.140;2023-06-26T02:34:51;19.10;66.40
73576;DHT22;61859;49.204;8.140;2023-06-26T02:37:19;19.10;66.50
73576;DHT22;61859;49.204;8.140;2023-06-26T02:39:45;19.00;66.70
73576;DHT22;61859;49.204;8.140;2023-06-26T02:42:11;19.00;66.70
73576;DHT22;61859;49.204;8.140;2023-06-26T02:44:36;19.00;66.50
73576;DHT22;61859;49.204;8.140;2023-06-26T02:47:02;19.00;66.40
73576;DHT22;61859;49.204;8.140;2023-06-26T02:49:28;18.90;66.60
73576;DHT22;61859;49.204;8.140;2023-06-26T02:51:53;19.00;66.50
73576;DHT22;61859;49.204;8.140;2023-06-26T02:54:19;19.00;66.70
73576;DHT22;61859;49.204;8.140;2023-06-26T02:56:45;19.00;66.70
73576;DHT22;61859;49.204;8.140;2023-06-26T02:59:10;19.10;66.30
73576;DHT22;61859;49.204;8.140;2023-06-26T03:01:36;19.00;66.70
73576;DHT22;61859;49.204;8.140;2023-06-26T03:04:02;18.90;67.00
73576;DHT22;61859;49.204;8.140;2023-06-26T03:06:27;18.90;66.90
73576;DHT22;61859;49.204;8.140;2023-06-26T03:08:53;19.00;67.10
73576;DHT22;61859;49.204;8.140;2023-06-26T03:11:19;18.90;66.90
73576;DHT22;61859;49.204;8.140;2023-06-26T03:13:44;18.90;66.90
73576;DHT22;61859;49.204;8.140;2023-06-26T03:16:10;18.90;67.20
73576;DHT22;61859;49.204;8.140;2023-06-26T03:18:36;18.90;66.40
73576;DHT22;61859;49.204;8.140;2023-06-26T03:21:01;19.00;66.00
73576;DHT22;61859;49.204;8.140;2023-06-26T03:23:27;19.10;65.50
73576;DHT22;61859;49.204;8.140;2023-06-26T03:25:53;19.00;66.00
73576;DHT22;61859;49.204;8.140;2023-06-26T03:28:18;19.10;65.90
73576;DHT22;61859;49.204;8.140;2023-06-26T03:30:44;19.00;66.00
73576;DHT22;61859;49.204;8.140;2023-06-26T03:33:10;19.00;66.20
73576;DHT22;61859;49.204;8.140;2023-06-26T03:35:35;19.00;66.40
73576;DHT22;61859;49.204;8.140;2023-06-26T03:38:01;19.00;66.30
73576;DHT22;61859;49.204;8.140;2023-06-26T03:40:27;19.00;66.40
73576;DHT22;61859;49.204;8.140;2023-06-26T03:42:52;19.00;66.60
73576;DHT22;61859;49.204;8.140;2023-06-26T03:45:18;18.90;66.70
73576;DHT22;61859;49.204;8.140;2023-06-26T03:47:44;18.90;66.50
73576;DHT22;61859;49.204;8.140;2023-06-26T03:50:12;19.00;66.70
73576;DHT22;61859;49.204;8.140;2023-06-26T03:52:38;19.00;66.80
73576;DHT22;61859;49.204;8.140;2023-06-26T03:55:03;19.00;67.00
73576;DHT22;61859;49.204;8.140;2023-06-26T03:57:29;19.00;66.50
73576;DHT22;61859;49.204;8.140;2023-06-26T03:59:54;19.10;66.70
73576;DHT22;61859;49.204;8.140;2023-06-26T04:02:20;19.10;66.80
73576;DHT22;61859;49.204;8.140;2023-06-26T04:04:45;19.00;66.90
73576;DHT22;61859;49.204;8.140;2023-06-26T04:07:11;19.10;67.00
73576;DHT22;61859;49.204;8.140;2023-06-26T04:09:36;19.10;67.00
73576;DHT22;61859;49.204;8.140;2023-06-26T04:12:02;19.00;66.80
73576;DHT22;61859;49.204;8.140;2023-06-26T04:14:28;19.00;66.90
73576;DHT22;61859;49.204;8.140;2023-06-26T04:16:54;19.10;67.40
73576;DHT22;61859;49.204;8.140;2023-06-26T04:19:19;19.00;66.90
73576;DHT22;61859;49.204;8.140;2023-06-26T04:21:45;19.10;67.10
73576;DHT22;61859;49.204;8.140;2023-06-26T04:24:10;19.00;67.40
73576;DHT22;61859;49.204;8.140;2023-06-26T04:26:36;19.00;67.40
73576;DHT22;61859;49.204;8.140;2023-06-26T04:29:02;19.00;67.80
73576;DHT22;61859;49.204;8.140;2023-06-26T04:31:28;19.10;67.60
73576;DHT22;61859;49.204;8.140;2023-06-26T04:33:54;19.10;67.60
73576;DHT22;61859;49.204;8.140;2023-06-26T04:36:20;19.10;67.40
73576;DHT22;61859;49.204;8.140;2023-06-26T04:38:46;19.10;67.40
73576;DHT22;61859;49.204;8.140;2023-06-26T04:41:13;19.20;67.40
73576;DHT22;61859;49.204;8.140;2023-06-26T04:43:39;19.30;67.00
73576;DHT22;61859;49.204;8.140;2023-06-26T04:46:05;19.40;66.70
73576;DHT22;61859;49.204;8.140;2023-06-26T04:48:31;19.50;66.50
73576;DHT22;61859;49.204;8.140;2023-06-26T04:50:57;19.70;65.70
73576;DHT22;61859;49.204;8.140;2023-06-26T04:53:24;19.70;65.60
73576;DHT22;61859;49.204;8.140;2023-06-26T04:55:51;19.80;65.10
73576;DHT22;61859;49.204;8.140;2023-06-26T04:58:16;20.00;65.70
73576;DHT22;61859;49.204;8.140;2023-06-26T05:00:42;20.20;64.80
73576;DHT22;61859;49.204;8.140;2023-06-26T05:03:12;20.20;65.20
73576;DHT22;61859;49.204;8.140;2023-06-26T05:05:39;20.40;65.20
73576;DHT22;61859;49.204;8.140;2023-06-26T05:08:18;20.50;64.40
73576;DHT22;61859;49.204;8.140;2023-06-26T05:10:44;20.50;64.70
73576;DHT22;61859;49.204;8.140;2023-06-26T05:13:10;20.70;64.30
73576;DHT22;61859;49.204;8.140;2023-06-26T05:15:36;20.80;64.50
73576;DHT22;61859;49.204;8.140;2023-06-26T05:18:01;21.00;63.10
73576;DHT22;61859;49.204;8.140;2023-06-26T05:20:27;21.10;62.70
73576;DHT22;61859;49.204;8.140;2023-06-26T05:22:52;21.30;62.30
73576;DHT22;61859;49.204;8.140;2023-06-26T05:25:19;21.40;62.10
73576;DHT22;61859;49.204;8.140;2023-06-26T05:27:47;21.40;61.50
73576;DHT22;61859;49.204;8.140;2023-06-26T05:30:13;21.60;61.50
73576;DHT22;61859;49.204;8.140;2023-06-26T05:32:40;21.70;62.00
73576;DHT22;61859;49.204;8.140;2023-06-26T05:35:06;21.80;60.50
73576;DHT22;61859;49.204;8.140;2023-06-26T05:37:33;21.80;60.50
73576;DHT22;61859;49.204;8.140;2023-06-26T05:40:00;22.00;60.50
73576;DHT22;61859;49.204;8.140;2023-06-26T05:42:27;22.10;60.50
73576;DHT22;61859;49.204;8.140;2023-06-26T05:44:53;22.20;60.20
73576;DHT22;61859;49.204;8.140;2023-06-26T05:47:19;22.30;60.10
73576;DHT22;61859;49.204;8.140;2023-06-26T05:49:44;22.40;59.20
73576;DHT22;61859;49.204;8.140;2023-06-26T05:52:10;22.50;59.10
73576;DHT22;61859;49.204;8.140;2023-06-26T05:54:36;22.60;59.40
73576;DHT22;61859;49.204;8.140;2023-06-26T05:57:03;22.70;58.70
73576;DHT22;61859;49.204;8.140;2023-06-26T05:59:31;22.80;57.70
73576;DHT22;61859;49.204;8.140;2023-06-26T06:01:57;22.90;58.30
73576;DHT22;61859;49.204;8.140;2023-06-26T06:04:22;23.00;58.10
73576;DHT22;61859;49.204;8.140;2023-06-26T06:06:48;23.10;57.90
73576;DHT22;61859;49.204;8.140;2023-06-26T06:09:13;23.20;58.20
73576;DHT22;61859;49.204;8.140;2023-06-26T06:11:39;23.30;58.20
73576;DHT22;61859;49.204;8.140;2023-06-26T06:14:04;23.40;58.30
73576;DHT22;61859;49.204;8.140;2023-06-26T06:16:30;23.60;57.20
73576;DHT22;61859;49.204;8.140;2023-06-26T06:18:55;23.70;57.20
73576;DHT22;61859;49.204;8.140;2023-06-26T06:21:21;23.80;57.70
73576;DHT22;61859;49.204;8.140;2023-06-26T06:23:47;23.90;57.20
73576;DHT22;61859;49.204;8.140;2023-06-26T06:26:12;24.00;57.60
73576;DHT22;61859;49.204;8.140;2023-06-26T06:28:41;24.10;56.70
73576;DHT22;61859;49.204;8.140;2023-06-26T06:31:06;24.20;56.10
73576;DHT22;61859;49.204;8.140;2023-06-26T06:33:32;24.40;54.50
73576;DHT22;61859;49.204;8.140;2023-06-26T06:35:58;24.50;53.60
73576;DHT22;61859;49.204;8.140;2023-06-26T06:38:23;24.70;53.40
73576;DHT22;61859;49.204;8.140;2023-06-26T06:40:49;24.80;53.60
73576;DHT22;61859;49.204;8.140;2023-06-26T06:43:14;24.90;53.90
73576;DHT22;61859;49.204;8.140;2023-06-26T06:45:40;25.10;54.30
73576;DHT22;61859;49.204;8.140;2023-06-26T06:48:06;25.10;54.60
73576;DHT22;61859;49.204;8.140;2023-06-26T06:50:32;25.30;55.40
73576;DHT22;61859;49.204;8.140;2023-06-26T06:52:57;25.40;54.90
73576;DHT22;61859;49.204;8.140;2023-06-26T06:55:23;25.50;54.90
73576;DHT22;61859;49.204;8.140;2023-06-26T06:57:49;25.80;54.80
73576;DHT22;61859;49.204;8.140;2023-06-26T07:00:15;25.90;53.60
73576;DHT22;61859;49.204;8.140;2023-06-26T07:02:43;26.00;54.00
73576;DHT22;61859;49.204;8.140;2023-06-26T07:05:10;26.20;53.80
73576;DHT22;61859;49.204;8.140;2023-06-26T07:07:36;26.30;54.00
73576;DHT22;61859;49.204;8.140;2023-06-26T07:10:12;26.50;51.90
73576;DHT22;61859;49.204;8.140;2023-06-26T07:12:39;26.70;53.30
73576;DHT22;61859;49.204;8.140;2023-06-26T07:15:05;26.90;53.10
73576;DHT22;61859;49.204;8.140;2023-06-26T07:17:32;27.00;53.20
73576;DHT22;61859;49.204;8.140;2023-06-26T07:19:58;27.20;53.00
73576;DHT22;61859;49.204;8.140;2023-06-26T07:22:24;27.40;51.40
73576;DHT22;61859;49.204;8.140;2023-06-26T07:24:49;27.60;51.30
73576;DHT22;61859;49.204;8.140;2023-06-26T07:27:15;27.80;49.40
73576;DHT22;61859;49.204;8.140;2023-06-26T07:29:42;27.90;50.80
73576;DHT22;61859;49.204;8.140;2023-06-26T07:32:07;28.10;47.30
73576;DHT22;61859;49.204;8.140;2023-06-26T07:34:33;28.20;47.60
73576;DHT22;61859;49.204;8.140;2023-06-26T07:36:59;28.30;47.30
73576;DHT22;61859;49.204;8.140;2023-06-26T07:39:24;28.60;46.70
73576;DHT22;61859;49.204;8.140;2023-06-26T07:41:50;28.60;46.90
73576;DHT22;61859;49.204;8.140;2023-06-26T07:44:15;28.80;46.40
73576;DHT22;61859;49.204;8.140;2023-06-26T07:46:41;28.90;46.10
73576;DHT22;61859;49.204;8.140;2023-06-26T07:49:06;28.80;46.10
73576;DHT22;61859;49.204;8.140;2023-06-26T07:51:32;28.70;46.20
73576;DHT22;61859;49.204;8.140;2023-06-26T07:53:57;28.80;46.90
73576;DHT22;61859;49.204;8.140;2023-06-26T07:56:23;29.10;46.60
73576;DHT22;61859;49.204;8.140;2023-06-26T07:58:49;29.20;46.20
73576;DHT22;61859;49.204;8.140;2023-06-26T08:01:14;29.00;45.60
73576;DHT22;61859;49.204;8.140;2023-06-26T08:03:40;28.60;46.40
73576;DHT22;61859;49.204;8.140;2023-06-26T08:06:05;28.40;47.40
73576;DHT22;61859;49.204;8.140;2023-06-26T08:08:31;28.40;47.10
73576;DHT22;61859;49.204;8.140;2023-06-26T08:10:57;28.10;47.30
73576;DHT22;61859;49.204;8.140;2023-06-26T08:13:22;28.00;47.80
73576;DHT22;61859;49.204;8.140;2023-06-26T08:15:48;27.80;48.00
73576;DHT22;61859;49.204;8.140;2023-06-26T08:18:13;27.90;48.40
73576;DHT22;61859;49.204;8.140;2023-06-26T08:20:39;27.90;48.20
73576;DHT22;61859;49.204;8.140;2023-06-26T08:23:04;27.90;49.10
73576;DHT22;61859;49.204;8.140;2023-06-26T08:25:30;28.20;48.60
73576;DHT22;61859;49.204;8.140;2023-06-26T08:27:56;28.40;48.70
73576;DHT22;61859;49.204;8.140;2023-06-26T08:30:21;28.60;47.70
73576;DHT22;61859;49.204;8.140;2023-06-26T08:32:47;28.80;47.40
73576;DHT22;61859;49.204;8.140;2023-06-26T08:35:13;29.00;46.70
73576;DHT22;61859;49.204;8.140;2023-06-26T08:37:39;28.90;46.90
73576;DHT22;61859;49.204;8.140;2023-06-26T08:40:05;28.70;46.60
73576;DHT22;61859;49.204;8.140;2023-06-26T08:42:31;28.50;48.20
73576;DHT22;61859;49.204;8.140;2023-06-26T08:44:57;28.60;47.80
73576;DHT22;61859;49.204;8.140;2023-06-26T08:47:22;28.60;47.90
73576;DHT22;61859;49.204;8.140;2023-06-26T08:50:00;28.70;47.60
73576;DHT22;61859;49.204;8.140;2023-06-26T08:52:33;28.90;47.60
73576;DHT22;61859;49.204;8.140;2023-06-26T08:55:02;28.70;47.50
73576;DHT22;61859;49.204;8.140;2023-06-26T08:57:32;28.40;48.70
73576;DHT22;61859;49.204;8.140;2023-06-26T08:59:58;28.30;49.10
73576;DHT22;61859;49.204;8.140;2023-06-26T09:02:23;28.30;48.80
73576;DHT22;61859;49.204;8.140;2023-06-26T09:04:50;28.20;49.70
73576;DHT22;61859;49.204;8.140;2023-06-26T09:07:16;28.50;49.10
73576;DHT22;61859;49.204;8.140;2023-06-26T09:09:42;29.00;47.90
73576;DHT22;61859;49.204;8.140;2023-06-26T09:12:09;29.20;47.80
73576;DHT22;61859;49.204;8.140;2023-06-26T09:14:35;29.20;47.80
73576;DHT22;61859;49.204;8.140;2023-06-26T09:17:01;29.30;48.40
73576;DHT22;61859;49.204;8.140;2023-06-26T09:19:27;29.50;47.90
73576;DHT22;61859;49.204;8.140;2023-06-26T09:21:54;29.60;48.20
73576;DHT22;61859;49.204;8.140;2023-06-26T09:24:21;29.60;47.50
73576;DHT22;61859;49.204;8.140;2023-06-26T09:26:47;29.30;48.00
73576;DHT22;61859;49.204;8.140;2023-06-26T09:29:13;29.00;48.60
73576;DHT22;61859;49.204;8.140;2023-06-26T09:31:39;28.70;49.00
73576;DHT22;61859;49.204;8.140;2023-06-26T09:34:05;28.90;49.00
73576;DHT22;61859;49.204;8.140;2023-06-26T09:36:32;29.10;49.20
73576;DHT22;61859;49.204;8.140;2023-06-26T09:39:07;29.10;49.10
73576;DHT22;61859;49.204;8.140;2023-06-26T09:41:36;29.30;48.50
73576;DHT22;61859;49.204;8.140;2023-06-26T09:44:03;29.20;47.90
73576;DHT22;61859;49.204;8.140;2023-06-26T09:46:30;29.10;48.20
73576;DHT22;61859;49.204;8.140;2023-06-26T09:49:09;29.30;49.00
73576;DHT22;61859;49.204;8.140;2023-06-26T09:51:40;29.80;48.80
73576;DHT22;61859;49.204;8.140;2023-06-26T09:54:07;30.20;47.20
73576;DHT22;61859;49.204;8.140;2023-06-26T09:56:33;30.40;46.40
73576;DHT22;61859;49.204;8.140;2023-06-26T09:59:01;30.60;45.60
73576;DHT22;61859;49.204;8.140;2023-06-26T10:01:28;30.60;46.20
73576;DHT22;61859;49.204;8.140;2023-06-26T10:03:54;31.00;45.80
73576;DHT22;61859;49.204;8.140;2023-06-26T10:06:35;31.30;45.40
73576;DHT22;61859;49.204;8.140;2023-06-26T10:09:02;31.60;44.00
73576;DHT22;61859;49.204;8.140;2023-06-26T10:14:17;31.40;44.10
73576;DHT22;61859;49.204;8.140;2023-06-26T10:16:45;31.30;44.90
73576;DHT22;61859;49.204;8.140;2023-06-26T10:19:13;30.80;45.30
73576;DHT22;61859;49.204;8.140;2023-06-26T10:21:40;30.20;45.10
73576;DHT22;61859;49.204;8.140;2023-06-26T10:24:06;29.80;46.50
73576;DHT22;61859;49.204;8.140;2023-06-26T10:26:37;30.10;46.60
73576;DHT22;61859;49.204;8.140;2023-06-26T10:29:04;30.70;45.30
73576;DHT22;61859;49.204;8.140;2023-06-26T10:31:31;31.30;44.40
73576;DHT22;61859;49.204;8.140;2023-06-26T10:33:57;31.70;44.20
73576;DHT22;61859;49.204;8.140;2023-06-26T10:36:31;31.90;44.00
73576;DHT22;61859;49.204;8.140;2023-06-26T10:39:06;32.20;42.60
73576;DHT22;61859;49.204;8.140;2023-06-26T10:41:40;32.20;42.90
73576;DHT22;61859;49.204;8.140;2023-06-26T10:44:13;32.70;42.40
73576;DHT22;61859;49.204;8.140;2023-06-26T10:46:52;33.20;41.10
73576;DHT22;61859;49.204;8.140;2023-06-26T10:49:19;33.40;39.90
73576;DHT22;61859;49.204;8.140;2023-06-26T10:51:49;33.30;40.20
73576;DHT22;61859;49.204;8.140;2023-06-26T10:54:16;33.00;39.80
73576;DHT22;61859;49.204;8.140;2023-06-26T10:56:54;33.10;39.90
73576;DHT22;61859;49.204;8.140;2023-06-26T10:59:27;33.20;39.20
73576;DHT22;61859;49.204;8.140;2023-06-26T11:01:58;32.50;40.50
73576;DHT22;61859;49.204;8.140;2023-06-26T11:07:34;31.40;41.60
73576;DHT22;61859;49.204;8.140;2023-06-26T11:12:44;32.00;41.00
73576;DHT22;61859;49.204;8.140;2023-06-26T11:15:17;32.10;38.80
73576;DHT22;61859;49.204;8.140;2023-06-26T11:17:43;32.20;39.30
73576;DHT22;61859;49.204;8.140;2023-06-26T11:20:11;32.40;39.00
73576;DHT22;61859;49.204;8.140;2023-06-26T11:22:39;32.70;37.40
73576;DHT22;61859;49.204;8.140;2023-06-26T11:27:42;32.90;37.10
73576;DHT22;61859;49.204;8.140;2023-06-26T11:30:10;32.70;37.40
73576;DHT22;61859;49.204;8.140;2023-06-26T11:32:39;33.00;37.40
73576;DHT22;61859;49.204;8.140;2023-06-26T11:35:05;33.20;36.80
73576;DHT22;61859;49.204;8.140;2023-06-26T11:37:31;33.30;36.40
73576;DHT22;61859;49.204;8.140;2023-06-26T11:39:57;33.40;36.50
73576;DHT22;61859;49.204;8.140;2023-06-26T11:42:23;33.90;35.80
73576;DHT22;61859;49.204;8.140;2023-06-26T11:44:50;34.10;35.50
73576;DHT22;61859;49.204;8.140;2023-06-26T11:47:20;34.50;35.10
73576;DHT22;61859;49.204;8.140;2023-06-26T11:49:47;34.90;35.70
73576;DHT22;61859;49.204;8.140;2023-06-26T11:52:13;35.10;35.20
73576;DHT22;61859;49.204;8.140;2023-06-26T11:54:40;35.00;35.00
73576;DHT22;61859;49.204;8.140;2023-06-26T11:57:05;34.90;34.30
73576;DHT22;61859;49.204;8.140;2023-06-26T11:59:35;33.90;34.80
73576;DHT22;61859;49.204;8.140;2023-06-26T12:02:08;34.00;35.80
73576;DHT22;61859;49.204;8.140;2023-06-26T12:04:39;34.40;34.50
73576;DHT22;61859;49.204;8.140;2023-06-26T12:07:06;35.00;35.20
73576;DHT22;61859;49.204;8.140;2023-06-26T12:09:37;35.30;34.10
73576;DHT22;61859;49.204;8.140;2023-06-26T12:12:03;35.20;34.30
73576;DHT22;61859;49.204;8.140;2023-06-26T12:14:30;34.80;35.20
73576;DHT22;61859;49.204;8.140;2023-06-26T12:16:56;34.80;34.30
73576;DHT22;61859;49.204;8.140;2023-06-26T12:19:29;34.70;35.40
73576;DHT22;61859;49.204;8.140;2023-06-26T12:21:55;34.50;34.80
73576;DHT22;61859;49.204;8.140;2023-06-26T12:24:23;34.20;35.30
73576;DHT22;61859;49.204;8.140;2023-06-26T12:26:53;34.00;35.20
73576;DHT22;61859;49.204;8.140;2023-06-26T12:29:22;33.60;36.00
73576;DHT22;61859;49.204;8.140;2023-06-26T12:31:54;33.40;36.20
73576;DHT22;61859;49.204;8.140;2023-06-26T12:34:21;33.40;35.60
73576;DHT22;61859;49.204;8.140;2023-06-26T12:36:51;33.30;35.90
73576;DHT22;61859;49.204;8.140;2023-06-26T12:39:18;33.80;35.60
73576;DHT22;61859;49.204;8.140;2023-06-26T12:41:57;34.00;35.40
73576;DHT22;61859;49.204;8.140;2023-06-26T12:44:28;33.80;35.60
73576;DHT22;61859;49.204;8.140;2023-06-26T12:46:59;33.70;35.80
73576;DHT22;61859;49.204;8.140;2023-06-26T12:51:58;33.10;35.90
73576;DHT22;61859;49.204;8.140;2023-06-26T12:54:24;33.00;36.30
73576;DHT22;61859;49.204;8.140;2023-06-26T12:56:50;33.30;36.50
73576;DHT22;61859;49.204;8.140;2023-06-26T12:59:16;33.50;35.40
73576;DHT22;61859;49.204;8.140;2023-06-26T13:01:41;33.40;35.60
73576;DHT22;61859;49.204;8.140;2023-06-26T13:04:07;33.00;35.80
73576;DHT22;61859;49.204;8.140;2023-06-26T13:06:34;32.90;36.30
73576;DHT22;61859;49.204;8.140;2023-06-26T13:08:59;32.90;35.70
73576;DHT22;61859;49.204;8.140;2023-06-26T13:11:25;32.80;36.20
73576;DHT22;61859;49.204;8.140;2023-06-26T13:13:50;32.80;36.20
73576;DHT22;61859;49.204;8.140;2023-06-26T13:16:16;32.90;35.60
73576;DHT22;61859;49.204;8.140;2023-06-26T13:18:41;32.80;35.80
73576;DHT22;61859;49.204;8.140;2023-06-26T13:21:07;32.90;35.70
73576;DHT22;61859;49.204;8.140;2023-06-26T13:23:32;33.00;35.80
73576;DHT22;61859;49.204;8.140;2023-06-26T13:25:58;33.30;34.80
73576;DHT22;61859;49.204;8.140;2023-06-26T13:28:24;33.70;35.50
73576;DHT22;61859;49.204;8.140;2023-06-26T13:30:49;34.40;35.00
73576;DHT22;61859;49.204;8.140;2023-06-26T13:33:15;34.90;33.10
73576;DHT22;61859;49.204;8.140;2023-06-26T13:35:41;34.70;33.40
73576;DHT22;61859;49.204;8.140;2023-06-26T13:38:07;34.50;33.50
73576;DHT22;61859;49.204;8.140;2023-06-26T13:40:32;34.90;33.40
73576;DHT22;61859;49.204;8.140;2023-06-26T13:42:58;34.60;32.90
73576;DHT22;61859;49.204;8.140;2023-06-26T13:45:25;34.10;32.70
73576;DHT22;61859;49.204;8.140;2023-06-26T13:47:50;34.00;33.00
73576;DHT22;61859;49.204;8.140;2023-06-26T13:50:16;34.10;33.80
73576;DHT22;61859;49.204;8.140;2023-06-26T13:52:42;34.10;32.90
73576;DHT22;61859;49.204;8.140;2023-06-26T13:55:08;34.20;32.60
73576;DHT22;61859;49.204;8.140;2023-06-26T13:57:34;34.30;32.30
73576;DHT22;61859;49.204;8.140;2023-06-26T14:00:00;34.10;31.30
73576;DHT22;61859;49.204;8.140;2023-06-26T14:02:25;34.10;31.00
73576;DHT22;61859;49.204;8.140;2023-06-26T14:04:51;33.80;31.70
73576;DHT22;61859;49.204;8.140;2023-06-26T14:07:17;33.40;30.80
73576;DHT22;61859;49.204;8.140;2023-06-26T14:09:43;33.30;30.60
73576;DHT22;61859;49.204;8.140;2023-06-26T14:12:08;33.20;30.20
73576;DHT22;61859;49.204;8.140;2023-06-26T14:14:34;33.00;30.40
73576;DHT22;61859;49.204;8.140;2023-06-26T14:17:00;33.10;30.80
73576;DHT22;61859;49.204;8.140;2023-06-26T14:19:25;33.20;29.80
73576;DHT22;61859;49.204;8.140;2023-06-26T14:21:51;33.00;29.50
73576;DHT22;61859;49.204;8.140;2023-06-26T14:24:17;33.10;29.20
73576;DHT22;61859;49.204;8.140;2023-06-26T14:26:42;32.90;29.80
73576;DHT22;61859;49.204;8.140;2023-06-26T14:29:08;32.80;28.60
73576;DHT22;61859;49.204;8.140;2023-06-26T14:31:33;32.50;28.00
73576;DHT22;61859;49.204;8.140;2023-06-26T14:33:59;32.40;27.90
73576;DHT22;61859;49.204;8.140;2023-06-26T14:36:25;31.80;29.10
73576;DHT22;61859;49.204;8.140;2023-06-26T14:38:52;31.60;29.90
73576;DHT22;61859;49.204;8.140;2023-06-26T14:41:17;31.40;29.60
73576;DHT22;61859;49.204;8.140;2023-06-26T14:43:43;31.30;30.90
73576;DHT22;61859;49.204;8.140;2023-06-26T14:46:10;31.40;30.30
73576;DHT22;61859;49.204;8.140;2023-06-26T14:48:36;31.20;30.10
73576;DHT22;61859;49.204;8.140;2023-06-26T14:51:02;31.20;30.60
73576;DHT22;61859;49.204;8.140;2023-06-26T14:53:27;30.90;30.20
73576;DHT22;61859;49.204;8.140;2023-06-26T14:55:53;31.00;30.10
73576;DHT22;61859;49.204;8.140;2023-06-26T14:58:18;30.90;29.30
73576;DHT22;61859;49.204;8.140;2023-06-26T15:00:44;30.90;30.50
73576;DHT22;61859;49.204;8.140;2023-06-26T15:03:09;30.80;30.70
73576;DHT22;61859;49.204;8.140;2023-06-26T15:05:35;31.10;30.50
73576;DHT22;61859;49.204;8.140;2023-06-26T15:08:00;31.30;30.00
73576;DHT22;61859;49.204;8.140;2023-06-26T15:10:26;31.70;29.90
73576;DHT22;61859;49.204;8.140;2023-06-26T15:12:52;32.00;29.70
73576;DHT22;61859;49.204;8.140;2023-06-26T15:15:18;32.10;29.30
73576;DHT22;61859;49.204;8.140;2023-06-26T15:17:44;32.40;29.60
73576;DHT22;61859;49.204;8.140;2023-06-26T15:20:10;32.10;29.90
73576;DHT22;61859;49.204;8.140;2023-06-26T15:22:35;32.00;29.60
73576;DHT22;61859;49.204;8.140;2023-06-26T15:25:01;31.30;29.60
73576;DHT22;61859;49.204;8.140;2023-06-26T15:27:26;30.10;30.50
73576;DHT22;61859;49.204;8.140;2023-06-26T15:29:52;29.70;31.00
73576;DHT22;61859;49.204;8.140;2023-06-26T15:32:17;29.60;31.80
73576;DHT22;61859;49.204;8.140;2023-06-26T15:34:43;29.50;31.80
73576;DHT22;61859;49.204;8.140;2023-06-26T15:37:08;29.50;31.60
73576;DHT22;61859;49.204;8.140;2023-06-26T15:39:34;29.30;31.60
73576;DHT22;61859;49.204;8.140;2023-06-26T15:41:59;29.50;31.90
73576;DHT22;61859;49.204;8.140;2023-06-26T15:44:25;29.60;32.00
73576;DHT22;61859;49.204;8.140;2023-06-26T15:46:50;29.70;32.40